Time;durP1;ratioP1;P1;durP2;ratioP2;P2;SDS_P1;SDS_P2;PMS_P1;PMS_P2;Temp;Humidity;BMP_temperature;BMP_pressure;BME280_temperature;BME280_humidity;BME280_pressure;Samples;Min_cycle;Max_cycle;Signal;HPM_P1;HPM_P2
2022/01/19 00:01:34;;;;;;;92.85;30.85;;;;;;;-146.64;100.00;97878.69;5051450;28;20480;-74
2022/01/19 00:04:00;;;;;;;87.47;32.63;;;;;;;-146.64;100.00;97878.69;5021342;28;20075;-74
2022/01/19 00:06:25;;;;;;;91.32;30.98;;;;;;;-146.64;100.00;97878.69;5045171;28;20028;-77
2022/01/19 00:08:52;;;;;;;95.55;31.17;;;;;;;-146.64;100.00;97612.84;5049565;28;20025;-74
2022/01/19 00:11:17;;;;;;;85.30;30.25;;;;;;;-146.64;100.00;97347.03;5034830;28;20063;-75
2022/01/19 00:13:43;;;;;;;112.45;32.65;;;;;;;-146.64;100.00;97081.25;5068260;28;20060;-75
2022/01/19 00:16:08;;;;;;;95.40;30.10;;;;;;;-146.64;100.00;96815.47;5034249;28;20071;-74
2022/01/19 00:18:33;;;;;;;81.38;28.65;;;;;;;-146.64;100.00;97347.03;5050850;28;20099;-75
2022/01/19 00:20:59;;;;;;;79.97;28.95;;;;;;;-146.64;100.00;97347.03;5048738;28;20378;-75
2022/01/19 00:23:25;;;;;;;76.22;29.70;;;;;;;-146.64;100.00;97347.03;5034285;28;20106;-74
2022/01/19 00:25:52;;;;;;;86.90;30.83;;;;;;;-146.64;100.00;97347.03;5050971;28;20059;-74
2022/01/19 00:28:18;;;;;;;88.70;29.65;;;;;;;-146.64;100.00;97347.03;5032117;28;20473;-75
2022/01/19 00:30:44;;;;;;;93.90;31.67;;;;;;;-146.64;100.00;97347.03;5043705;28;20067;-74
2022/01/19 00:33:09;;;;;;;82.68;30.00;;;;;;;-146.64;100.00;97347.03;5065157;28;20057;-75
2022/01/19 00:35:35;;;;;;;89.00;30.52;;;;;;;-146.64;100.00;97081.25;5033790;28;20075;-75
2022/01/19 00:38:02;;;;;;;81.00;32.17;;;;;;;-146.64;100.00;97081.25;5051075;28;20381;-74
2022/01/19 00:40:28;;;;;;;;;;;;;;;-146.64;100.00;96549.72;5049986;28;20024;-75
2022/01/19 00:42:53;;;;;;;88.28;30.23;;;;;;;-146.64;100.00;96815.47;5050061;28;19913;-74
2022/01/19 00:45:18;;;;;;;90.65;31.95;;;;;;;-146.64;100.00;96549.72;5022691;28;20025;-74
2022/01/19 00:47:44;;;;;;;87.68;31.45;;;;;;;-146.64;100.00;96018.25;5049317;28;20047;-74
2022/01/19 00:50:12;;;;;;;89.10;30.80;;;;;;;-146.64;100.00;96018.25;5050063;28;20032;-74
2022/01/19 00:52:37;;;;;;;89.57;31.25;;;;;;;-146.64;100.00;96549.72;5050492;28;20056;-74
2022/01/19 00:55:08;;;;;;;94.90;32.40;;;;;;;-146.64;100.00;96815.47;5032965;28;20080;-74
2022/01/19 00:57:33;;;;;;;84.40;30.40;;;;;;;-146.64;100.00;97081.25;5047948;28;20033;-75
2022/01/19 00:59:59;;;;;;;88.13;30.92;;;;;;;-146.64;100.00;96549.72;5051926;28;20496;-75
2022/01/19 01:02:24;;;;;;;83.43;29.55;;;;;;;-146.64;100.00;96283.97;5049682;28;20120;-75
2022/01/19 01:04:49;;;;;;;81.70;28.05;;;;;;;-146.64;100.00;96549.72;5049870;28;20029;-74
2022/01/19 01:07:15;;;;;;;88.43;32.63;;;;;;;-146.64;100.00;96815.47;5048657;28;20029;-74
2022/01/19 01:09:40;;;;;;;88.75;29.67;;;;;;;-146.64;100.00;97081.25;5023631;28;20080;-75
2022/01/19 01:12:12;;;;;;;83.38;30.38;;;;;;;-146.64;100.00;96815.47;5028048;28;20066;-74
2022/01/19 01:20:08;;;;;;;82.63;29.25;;;;;;;-146.64;100.00;97081.25;5033220;28;20036;-75
2022/01/19 01:22:33;;;;;;;77.78;29.55;;;;;;;-146.64;100.00;96815.47;5049471;28;20048;-74
2022/01/19 01:24:59;;;;;;;104.20;31.33;;;;;;;-146.64;100.00;96549.72;5049108;28;20029;-74
2022/01/19 01:27:24;;;;;;;79.10;29.73;;;;;;;-146.64;100.00;96549.72;5049504;28;20443;-75
2022/01/19 01:29:50;;;;;;;88.78;29.15;;;;;;;-146.64;100.00;96549.72;5048585;28;20052;-75
2022/01/19 01:32:15;;;;;;;80.95;29.17;;;;;;;-146.64;100.00;96018.25;5036207;28;20140;-74
2022/01/19 01:34:41;;;;;;;75.63;29.42;;;;;;;-146.64;100.00;94955.53;5041145;28;20024;-74
2022/01/19 01:37:06;;;;;;;73.03;29.67;;;;;;;-146.64;100.00;93627.50;5032160;28;20076;-74
2022/01/19 01:39:31;;;;;;;71.57;28.67;;;;;;;-146.64;100.00;94158.66;5055810;28;20022;-75
2022/01/19 01:41:56;;;;;;;84.28;29.75;;;;;;;-146.64;100.00;92034.47;5028078;28;20480;-74
2022/01/19 01:44:22;;;;;;;80.43;29.38;;;;;;;-146.64;100.00;91769.03;5046358;28;20492;-74
2022/01/19 01:46:52;;;;;;;74.43;30.85;;;;;;;-146.64;100.00;88319.81;5055580;28;20100;-76
2022/01/19 01:49:27;;;;;;;87.68;30.80;;;;;;;-146.64;100.00;86463.78;5052334;28;20037;-74
2022/01/19 01:54:39;;;;;;;73.10;28.60;;;;;;;-146.64;100.00;87524.28;5050451;28;20140;-74
2022/01/19 01:57:05;;;;;;;79.70;31.08;;;;;;;-146.64;100.00;87259.13;5049555;28;20025;-74
2022/01/19 01:59:33;;;;;;;80.57;32.63;;;;;;;-146.64;100.00;86463.78;5049214;28;20380;-74
2022/01/19 02:02:00;;;;;;;88.25;33.42;;;;;;;-146.64;100.00;84873.56;5044927;28;20141;-75
2022/01/19 02:04:26;;;;;;;81.53;32.55;;;;;;;-146.64;100.00;85668.59;5044576;28;20215;-74
2022/01/19 02:09:29;;;;;;;79.03;29.77;;;;;;;-146.64;100.00;87524.28;5045662;28;20132;-74
2022/01/19 02:23:02;;;;;;;70.10;29.50;;;;;;;-146.64;100.00;91238.19;5049324;28;20063;-74
2022/01/19 02:25:31;;;;;;;69.45;29.88;;;;;;;-146.64;100.00;92034.47;5049814;28;20116;-74
2022/01/19 02:41:41;;;;;;;64.97;27.15;;;;;;;-146.64;100.00;93361.97;5041070;28;20514;-74
2022/01/19 02:44:10;;;;;;;73.05;27.63;;;;;;;-146.64;100.00;93096.44;5048031;28;20025;-74
2022/01/19 02:49:08;;;;;;;74.78;28.65;;;;;;;-146.64;100.00;93893.06;5046255;28;20036;-73
2022/01/19 02:49:24;;;;;;;73.43;28.48;;;;;;;-146.64;100.00;94424.25;5043095;28;20029;-73
2022/01/19 02:51:51;;;;;;;77.07;28.73;;;;;;;-146.64;100.00;93893.06;5041016;28;20037;-73
2022/01/19 02:54:20;;;;;;;65.88;27.48;;;;;;;-146.64;100.00;93361.97;5046757;28;20045;-74
2022/01/19 02:56:50;;;;;;;63.13;26.27;;;;;;;-146.64;100.00;93893.06;5050891;28;20048;-74
2022/01/19 02:59:26;;;;;;;84.15;30.83;;;;;;;-146.64;100.00;94689.88;5066599;28;20032;-73
2022/01/19 03:10:03;;;;;;;70.53;29.92;;;;;;;-146.64;100.00;94689.88;5066269;28;20031;-73
2022/01/19 03:12:28;;;;;;;75.30;28.17;;;;;;;-146.64;100.00;95221.19;5050924;28;20483;-74
2022/01/19 03:14:54;;;;;;;73.07;28.85;;;;;;;-146.64;100.00;94955.53;5033532;28;20029;-74
2022/01/19 03:17:19;;;;;;;71.90;28.27;;;;;;;-146.64;100.00;94689.88;5033964;28;20067;-74
2022/01/19 03:19:45;;;;;;;71.15;28.95;;;;;;;-146.64;100.00;94424.25;5032891;28;20033;-74
2022/01/19 03:22:11;;;;;;;72.95;28.00;;;;;;;-146.64;100.00;94689.88;5048807;28;20052;-74
2022/01/19 03:24:38;;;;;;;68.25;28.02;;;;;;;-146.64;100.00;94955.53;5058363;28;20098;-75
2022/01/19 03:27:05;;;;;;;74.78;29.42;;;;;;;-146.64;100.00;94955.53;5048440;28;20025;-73
2022/01/19 03:29:30;;;;;;;74.35;30.38;;;;;;;-146.64;100.00;95221.19;5043146;28;20472;-74
2022/01/19 03:31:55;;;;;;;83.15;28.60;;;;;;;-146.64;100.00;95221.19;5050885;28;20075;-74
2022/01/19 03:34:21;;;;;;;74.50;28.90;;;;;;;-146.64;100.00;95221.19;5053411;28;20116;-76
2022/01/19 03:36:46;;;;;;;75.90;30.75;;;;;;;-146.64;100.00;95486.84;5064163;28;20722;-74
2022/01/19 03:39:14;;;;;;;72.50;29.70;;;;;;;-146.64;100.00;95221.19;5036353;28;20080;-74
2022/01/19 03:41:39;;;;;;;71.63;28.15;;;;;;;-146.64;100.00;95221.19;5068413;28;20025;-74
2022/01/19 03:44:05;;;;;;;79.97;30.45;;;;;;;-146.64;100.00;95486.84;5066644;28;20119;-74
2022/01/19 03:46:34;;;;;;;80.47;31.00;;;;;;;-146.64;100.00;95752.53;5035901;28;20025;-74
2022/01/19 03:49:09;;;;;;;83.65;29.98;;;;;;;-146.64;100.00;95486.84;5072979;28;20031;-73
2022/01/19 03:51:35;;;;;;;74.90;28.75;;;;;;;-146.64;100.00;95221.19;5071193;28;20028;-74
2022/01/19 03:54:00;;;;;;;100.03;32.47;;;;;;;-146.64;100.00;95752.53;5048386;28;20053;-73
2022/01/19 03:56:25;;;;;;;86.20;30.88;;;;;;;-146.64;100.00;96018.25;5033712;28;20025;-73
2022/01/19 03:58:51;;;;;;;86.05;31.95;;;;;;;-146.64;100.00;96283.97;5048879;28;20033;-74
2022/01/19 04:01:17;;;;;;;91.47;32.42;;;;;;;-146.64;100.00;96549.72;5031440;28;20041;-74
2022/01/19 04:04:04;;;;;;;95.95;32.33;;;;;;;-146.64;100.00;96549.72;5045265;28;20552;-73
2022/01/19 04:06:53;;;;;;;85.60;31.88;;;;;;;-146.64;100.00;96549.72;5053669;28;20032;-74
2022/01/19 04:09:17;;;;;;;80.13;30.88;;;;;;;-146.64;100.00;96283.97;5064325;28;20094;-74
2022/01/19 04:11:43;;;;;;;87.45;33.28;;;;;;;-146.64;100.00;96815.47;5034109;28;20025;-74
2022/01/19 04:14:24;;;;;;;97.05;34.75;;;;;;;-146.64;100.00;96815.47;5065545;28;20025;-73
2022/01/19 04:17:11;;;;;;;82.57;32.97;;;;;;;-146.64;100.00;96815.47;5030711;28;20026;-74
2022/01/19 04:22:06;;;;;;;96.97;33.13;;;;;;;-146.64;100.00;96549.72;5042376;28;20410;-74
2022/01/19 04:24:32;;;;;;;82.13;34.38;;;;;;;-146.64;100.00;96815.47;5023469;28;20025;-74
2022/01/19 04:30:05;;;;;;;112.18;38.63;;;;;;;-146.64;100.00;97878.69;5050117;28;20162;-73
2022/01/19 04:32:41;;;;;;;118.32;37.17;;;;;;;-146.64;100.00;98410.41;5042875;28;20021;-75
2022/01/19 04:35:09;;;;;;;105.28;38.60;;;;;;;-146.64;100.00;98676.28;5035658;28;20029;-74
2022/01/19 04:48:58;;;;;;;95.05;38.80;;;;;;;-146.64;100.00;99208.09;5043913;28;20020;-73
2022/01/19 05:04:57;;;;;;;92.72;39.05;;;;;;;-146.64;100.00;98942.19;5033651;28;20038;-73
2022/01/19 05:07:29;;;;;;;104.60;40.15;;;;;;;-146.64;100.00;98942.19;5045483;28;20392;-74
2022/01/19 05:15:06;;;;;;;102.45;38.50;;;;;;;-146.64;100.00;98942.19;5033854;28;20076;-73
2022/01/19 05:17:32;;;;;;;98.25;38.72;;;;;;;-146.64;100.00;99208.09;5048879;28;20032;-74
2022/01/19 05:19:58;;;;;;;99.00;40.60;;;;;;;-146.64;100.00;98942.19;5032259;28;20580;-74
2022/01/19 05:22:23;;;;;;;100.80;39.55;;;;;;;-146.64;100.00;99208.09;5031306;28;20020;-73
2022/01/19 05:24:48;;;;;;;99.97;41.83;;;;;;;-146.64;100.00;99208.09;5049707;28;20094;-75
2022/01/19 05:27:14;;;;;;;86.90;40.10;;;;;;;-146.64;100.00;99208.09;5048533;28;20558;-74
2022/01/19 05:29:39;;;;;;;97.30;40.47;;;;;;;-146.64;100.00;99208.09;5031863;28;20487;-75
2022/01/19 05:32:05;;;;;;;96.15;40.50;;;;;;;-146.64;100.00;98942.19;5024604;28;20055;-74
2022/01/19 05:34:30;;;;;;;78.75;29.73;;;;;;;-146.64;100.00;98676.28;5040450;28;20376;-73
2022/01/19 05:36:55;;;;;;;88.47;38.95;;;;;;;-146.64;100.00;98144.53;5030681;28;20132;-74
2022/01/19 05:39:21;;;;;;;83.93;39.47;;;;;;;-146.64;100.00;97878.69;5049579;28;20029;-73
2022/01/19 05:41:47;;;;;;;87.93;39.80;;;;;;;-146.64;100.00;97612.84;5049295;28;20033;-74
2022/01/19 05:44:12;;;;;;;89.60;40.63;;;;;;;-146.64;100.00;97347.03;5048737;28;20048;-73
2022/01/19 05:46:38;;;;;;;94.10;41.33;;;;;;;-146.64;100.00;97081.25;5048314;28;20566;-73
2022/01/19 05:49:03;;;;;;;86.45;39.25;;;;;;;-146.64;100.00;97081.25;5047715;28;20120;-74
2022/01/19 05:51:28;;;;;;;92.57;41.17;;;;;;;-146.64;100.00;97081.25;5063643;28;20072;-74
2022/01/19 05:53:53;;;;;;;93.40;37.92;;;;;;;-146.64;100.00;96815.47;5047051;28;20049;-74
2022/01/19 05:56:19;;;;;;;83.10;36.85;;;;;;;-146.64;100.00;97081.25;5050746;28;20072;-74
2022/01/19 05:58:44;;;;;;;81.93;37.83;;;;;;;-146.64;100.00;96815.47;5044815;28;20132;-74
2022/01/19 06:01:09;;;;;;;88.57;39.35;;;;;;;-146.64;100.00;96815.47;5035820;28;20469;-74
2022/01/19 06:03:35;;;;;;;83.35;35.58;;;;;;;-146.64;100.00;96815.47;5065550;28;20429;-74
2022/01/19 06:06:00;;;;;;;84.82;37.92;;;;;;;-146.64;100.00;96549.72;5032018;28;20081;-73
2022/01/19 06:10:55;;;;;;;91.00;37.15;;;;;;;-146.64;100.00;96018.25;5048719;28;20094;-74
2022/01/19 06:13:22;;;;;;;82.68;36.65;;;;;;;-146.64;100.00;96018.25;5028288;28;20412;-74
2022/01/19 06:15:48;;;;;;;81.93;36.10;;;;;;;-146.64;100.00;96018.25;5015341;28;20097;-74
2022/01/19 06:18:14;;;;;;;69.53;34.40;;;;;;;-146.64;100.00;96018.25;5038430;28;20033;-74
2022/01/19 06:20:40;;;;;;;77.03;35.37;;;;;;;-146.64;100.00;96018.25;5047133;28;20037;-75
2022/01/19 06:23:05;;;;;;;71.65;34.05;;;;;;;-146.64;100.00;95486.84;5058416;28;20496;-74
2022/01/19 06:25:31;;;;;;;77.78;34.90;;;;;;;-146.64;100.00;95221.19;5012438;28;20045;-74
2022/01/19 06:27:57;;;;;;;78.07;33.75;;;;;;;-146.64;100.00;95221.19;5048847;28;20587;-74
2022/01/19 06:30:22;;;;;;;71.15;33.72;;;;;;;-146.64;100.00;95221.19;5049103;28;20436;-74
2022/01/19 06:32:48;;;;;;;78.60;35.53;;;;;;;-146.64;100.00;95486.84;5029774;28;20051;-73
2022/01/19 06:35:13;;;;;;;80.85;34.60;;;;;;;-146.64;100.00;95221.19;5046009;28;20067;-73
2022/01/19 06:37:38;;;;;;;76.93;34.67;;;;;;;-146.64;100.00;94955.53;5038001;28;20040;-74
2022/01/19 06:40:05;;;;;;;82.00;33.88;;;;;;;-146.64;100.00;94689.88;5027857;28;20451;-74
2022/01/19 06:42:30;;;;;;;78.40;35.33;;;;;;;-146.64;100.00;94424.25;5057070;28;20032;-73
2022/01/19 06:44:56;;;;;;;77.85;34.47;;;;;;;-146.64;100.00;94955.53;5039458;28;20089;-75
2022/01/19 06:47:21;;;;;;;80.55;34.58;;;;;;;-146.64;100.00;94955.53;5034626;28;20048;-74
2022/01/19 06:49:46;;;;;;;75.63;34.03;;;;;;;-146.64;100.00;94955.53;5046862;28;20033;-74
2022/01/19 06:52:12;;;;;;;75.40;34.67;;;;;;;-146.64;100.00;94689.88;5047336;28;20049;-74
2022/01/19 06:54:37;;;;;;;79.05;35.33;;;;;;;-146.64;100.00;94689.88;5047315;28;20055;-74
2022/01/19 06:57:02;;;;;;;78.50;34.72;;;;;;;-146.64;100.00;94689.88;5048012;28;20550;-73
2022/01/19 06:59:28;;;;;;;73.38;32.72;;;;;;;-146.64;100.00;94689.88;5043486;28;20098;-74
2022/01/19 07:01:53;;;;;;;81.53;34.47;;;;;;;-146.64;100.00;94689.88;5045127;28;20043;-74
2022/01/19 07:04:19;;;;;;;75.45;33.35;;;;;;;-146.64;100.00;94689.88;5041145;28;20022;-75
2022/01/19 07:06:45;;;;;;;80.80;32.63;;;;;;;-146.64;100.00;94689.88;5058663;28;20081;-74
2022/01/19 07:09:10;;;;;;;75.65;33.05;;;;;;;-146.64;100.00;93893.06;5029088;28;20056;-74
2022/01/19 07:11:36;;;;;;;74.80;33.83;;;;;;;-146.64;100.00;93893.06;5044529;28;20428;-74
2022/01/19 07:14:03;;;;;;;67.53;32.58;;;;;;;-146.64;100.00;93361.97;5047174;28;20056;-74
2022/01/19 07:16:28;;;;;;;79.97;33.60;;;;;;;-146.64;100.00;93361.97;5057571;28;20017;-74
2022/01/19 07:18:53;;;;;;;72.78;34.40;;;;;;;-146.64;100.00;93361.97;5045377;28;20374;-74
2022/01/19 07:21:19;;;;;;;72.30;33.13;;;;;;;-146.64;100.00;93096.44;5053403;28;20072;-74
2022/01/19 07:23:44;;;;;;;69.95;31.80;;;;;;;-146.64;100.00;92830.91;5064249;28;20353;-74
2022/01/19 07:26:09;;;;;;;75.68;31.40;;;;;;;-146.64;100.00;93096.44;5032442;28;20029;-74
2022/01/19 07:28:35;;;;;;;69.68;32.72;;;;;;;-146.64;100.00;93096.44;5052395;28;20013;-74
2022/01/19 07:31:00;;;;;;;72.25;32.88;;;;;;;-146.64;100.00;93096.44;5029757;28;20041;-74
2022/01/19 07:33:25;;;;;;;75.50;33.70;;;;;;;-146.64;100.00;93096.44;5045005;28;20025;-74
2022/01/19 07:35:51;;;;;;;73.05;32.20;;;;;;;-146.64;100.00;93096.44;5032008;28;20100;-74
2022/01/19 07:38:17;;;;;;;72.30;32.63;;;;;;;-146.64;100.00;93096.44;5050024;28;20029;-74
2022/01/19 07:40:43;;;;;;;76.80;33.47;;;;;;;-146.64;100.00;93096.44;5046917;28;20060;-74
2022/01/19 07:43:08;;;;;;;73.35;33.30;;;;;;;-146.64;100.00;93361.97;5049917;28;20148;-74
2022/01/19 07:45:34;;;;;;;70.38;33.45;;;;;;;-146.64;100.00;93627.50;5050948;28;20037;-75
2022/01/19 07:47:59;;;;;;;76.22;33.08;;;;;;;-146.64;100.00;93893.06;5044446;28;20214;-74
2022/01/19 07:50:24;;;;;;;87.20;36.15;;;;;;;-146.64;100.00;93627.50;5043314;28;20396;-75
2022/01/19 07:52:50;;;;;;;84.15;36.45;;;;;;;-146.64;100.00;93627.50;5042273;28;20042;-75
2022/01/19 07:55:15;;;;;;;89.50;36.03;;;;;;;-146.64;100.00;93627.50;5049244;28;20488;-74
2022/01/19 07:57:45;;;;;;;90.38;37.30;;;;;;;-146.64;100.00;93361.97;5033366;28;20512;-73
2022/01/19 08:00:10;;;;;;;70.60;33.80;;;;;;;-146.64;100.00;93627.50;5051346;28;20024;-74
2022/01/19 08:02:36;;;;;;;73.22;37.40;;;;;;;-146.64;100.00;93361.97;5039695;28;20507;-73
2022/01/19 08:05:02;;;;;;;88.65;38.92;;;;;;;-146.64;100.00;93361.97;5029608;28;20036;-74
2022/01/19 08:07:27;;;;;;;90.88;37.33;;;;;;;-146.64;100.00;93627.50;5031334;28;20568;-73
2022/01/19 08:09:53;;;;;;;93.13;39.25;;;;;;;-146.64;100.00;93361.97;5027085;28;20033;-74
2022/01/19 08:12:18;;;;;;;91.85;38.45;;;;;;;-146.64;100.00;93627.50;5037431;28;20388;-75
2022/01/19 08:14:44;;;;;;;75.07;35.53;;;;;;;-146.64;100.00;93627.50;5031962;28;20450;-74
2022/01/19 08:17:11;;;;;;;81.95;36.90;;;;;;;-146.64;100.00;93893.06;5042319;28;20703;-74
2022/01/19 08:19:36;;;;;;;87.55;36.63;;;;;;;-146.64;100.00;93361.97;5032572;28;20152;-74
2022/01/19 08:22:02;;;;;;;76.45;35.80;;;;;;;-146.64;100.00;93361.97;5027681;28;20119;-74
2022/01/19 08:24:27;;;;;;;80.20;34.83;;;;;;;-146.64;100.00;93096.44;5052368;28;20044;-75
2022/01/19 08:26:54;;;;;;;92.43;37.13;;;;;;;-146.64;100.00;93096.44;5043857;28;20086;-74
2022/01/19 08:29:19;;;;;;;;;;;;;;;-146.64;100.00;93096.44;5045425;28;20489;-74
2022/01/19 08:31:45;;;;;;;67.00;31.98;;;;;;;-146.64;100.00;93096.44;5043324;28;19919;-74
2022/01/19 08:34:10;;;;;;;70.93;33.50;;;;;;;-146.64;100.00;93096.44;5026495;28;20034;-74
2022/01/19 08:36:35;;;;;;;73.35;32.38;;;;;;;-146.64;100.00;92299.94;5037882;28;20030;-74
2022/01/19 08:39:01;;;;;;;78.25;33.33;;;;;;;-146.64;100.00;91503.59;5017875;28;20053;-74
2022/01/19 08:41:26;;;;;;;72.82;32.88;;;;;;;-146.64;100.00;91503.59;5062119;28;20082;-74
2022/01/19 08:43:51;;;;;;;64.63;32.40;;;;;;;-146.64;100.00;92034.47;5046385;28;20331;-74
2022/01/19 08:46:17;;;;;;;69.15;32.22;;;;;;;-146.64;100.00;91769.03;5040498;28;20068;-74
2022/01/19 08:48:42;;;;;;;72.45;32.67;;;;;;;-146.64;100.00;91238.19;5035935;28;20116;-74
2022/01/19 08:51:08;;;;;;;68.07;31.42;;;;;;;-146.64;100.00;90176.72;5039350;28;20493;-74
2022/01/19 08:53:33;;;;;;;71.72;31.88;;;;;;;-146.64;100.00;89911.41;5047123;28;20132;-74
2022/01/19 08:55:58;;;;;;;78.20;31.58;;;;;;;-146.64;100.00;90176.72;5031946;28;20021;-74
2022/01/19 08:58:24;;;;;;;64.15;30.85;;;;;;;-146.64;100.00;89646.09;5039483;28;20127;-74
2022/01/19 09:00:49;;;;;;;63.08;31.33;;;;;;;-146.64;100.00;89646.09;5031200;28;20484;-74
2022/01/19 09:03:16;;;;;;;73.95;30.73;;;;;;;-146.64;100.00;89646.09;5028276;28;20472;-74
2022/01/19 09:05:41;;;;;;;74.65;31.92;;;;;;;-146.64;100.00;89646.09;5060341;28;20104;-74
2022/01/19 09:08:07;;;;;;;69.40;30.88;;;;;;;-146.64;100.00;89646.09;5053982;28;20112;-74
2022/01/19 09:10:32;;;;;;;65.47;30.65;;;;;;;-146.64;100.00;89911.41;5034271;28;20025;-74
2022/01/19 09:12:57;;;;;;;66.32;31.08;;;;;;;-146.64;100.00;89115.53;5052870;28;20039;-74
2022/01/19 09:15:23;;;;;;;59.80;29.92;;;;;;;-146.64;100.00;89380.81;5048227;28;20040;-74
2022/01/19 09:17:49;;;;;;;62.53;29.45;;;;;;;-146.64;100.00;89115.53;5027683;28;20385;-74
2022/01/19 09:20:16;;;;;;;65.03;29.35;;;;;;;-146.64;100.00;87259.13;5046581;28;20052;-74
2022/01/19 09:22:41;;;;;;;;;;;;;;;-146.64;100.00;84873.56;5047722;28;20021;-74
2022/01/19 09:25:09;;;;;;;53.47;27.25;;;;;;;-146.64;100.00;82489.44;5030368;28;20392;-74
2022/01/19 09:27:37;;;;;;;60.83;31.25;;;;;;;-146.64;100.00;80371.41;5060827;28;20025;-74
2022/01/19 09:30:05;;;;;;;61.15;30.48;;;;;;;-146.64;100.00;78783.59;5049540;28;20102;-74
2022/01/19 09:32:30;;;;;;;55.67;29.83;;;;;;;-146.64;100.00;78783.59;5049009;28;20030;-74
2022/01/19 09:35:04;;;;;;;65.07;28.65;;;;;;;-146.64;100.00;79842.06;5032573;28;20086;-74
2022/01/19 09:37:29;;;;;;;56.08;30.80;;;;;;;-146.64;100.00;77725.41;5042512;28;20083;-74
2022/01/19 09:39:55;;;;;;;57.83;30.55;;;;;;;-146.64;100.00;75609.88;5050669;28;20424;-75
2022/01/19 09:42:20;;;;;;;64.13;31.08;;;;;;;-146.64;100.00;74552.53;5041111;28;20049;-74
2022/01/19 09:44:45;;;;;;;61.55;29.38;;;;;;;-146.64;100.00;74816.84;5047030;28;20029;-74
2022/01/19 09:47:11;;;;;;;62.67;30.35;;;;;;;-146.64;100.00;72438.66;5036442;28;20028;-73
2022/01/19 09:49:36;;;;;;;57.28;30.27;;;;;;;-146.64;100.00;72702.84;5045961;28;20028;-74
2022/01/19 09:52:01;;;;;;;56.55;30.10;;;;;;;-146.64;100.00;70325.94;5044320;28;20024;-74
2022/01/19 09:54:30;;;;;;;57.08;28.85;;;;;;;-146.64;100.00;71646.25;5058373;28;20123;-74
2022/01/19 09:56:55;;;;;;;61.40;29.10;;;;;;;-146.64;100.00;73495.47;5051763;28;20032;-73
2022/01/19 09:59:21;;;;;;;49.95;28.67;;;;;;;-146.64;100.00;70589.97;5069326;28;20029;-74
2022/01/19 10:01:49;;;;;;;62.78;29.23;;;;;;;-146.64;100.00;71118.06;5051534;28;20028;-74
2022/01/19 10:04:17;;;;;;;55.70;29.33;;;;;;;-146.64;100.00;70854.00;5068082;28;20492;-74
2022/01/19 10:06:42;;;;;;;57.10;29.25;;;;;;;-146.64;100.00;69797.91;5032566;28;20032;-74
2022/01/19 10:09:08;;;;;;;51.72;28.35;;;;;;;-146.64;100.00;69797.91;5050540;28;20019;-74
2022/01/19 10:17:04;;;;;;;60.03;30.13;;;;;;;-146.64;100.00;69797.91;5048644;28;20170;-74
2022/01/19 10:19:42;;;;;;;51.97;28.48;;;;;;;-146.64;100.00;71382.16;5066411;28;20023;-74
2022/01/19 10:22:14;;;;;;;65.15;28.92;;;;;;;-146.64;100.00;71382.16;5047487;28;20472;-74
2022/01/19 10:24:46;;;;;;;61.88;29.08;;;;;;;-146.64;100.00;71910.38;5044913;28;20029;-74
2022/01/19 10:27:35;;;;;;;61.28;29.10;;;;;;;-146.64;100.00;71382.16;5046593;28;20025;-74
2022/01/19 10:30:03;;;;;;;;;;;;;;;-146.64;100.00;70854.00;5048279;28;20032;-73
2022/01/19 10:32:29;;;;;;;;;;;;;;;-146.64;100.00;71382.16;5065019;28;19952;-74
2022/01/19 10:34:54;;;;;;;56.58;28.30;;;;;;;-146.64;100.00;71382.16;5049320;28;19966;-74
2022/01/19 10:37:24;;;;;;;57.13;30.33;;;;;;;-146.64;100.00;72174.50;5068598;28;20464;-74
2022/01/19 10:39:50;;;;;;;53.60;29.70;;;;;;;-146.64;100.00;70325.94;5051672;28;20434;-74
2022/01/19 10:42:20;;;;;;;51.38;29.08;;;;;;;-146.64;100.00;69269.97;5060163;28;20037;-74
2022/01/19 10:44:50;;;;;;;58.78;30.33;;;;;;;-146.64;100.00;69797.91;5023591;28;20090;-74
2022/01/19 10:47:17;;;;;;;56.20;30.85;;;;;;;-146.64;100.00;70061.91;5066287;28;20105;-74
2022/01/19 10:49:55;;;;;;;53.92;29.30;;;;;;;-146.64;100.00;70854.00;5069636;28;20111;-75
2022/01/19 10:52:25;;;;;;;57.45;30.73;;;;;;;-146.64;100.00;69797.91;5038482;28;20396;-75
2022/01/19 10:54:50;;;;;;;53.00;28.92;;;;;;;-146.64;100.00;67422.72;5051779;28;20040;-75
2022/01/19 10:57:16;;;;;;;55.60;30.67;;;;;;;-146.64;100.00;67422.72;5033367;28;20072;-75
2022/01/19 10:59:41;;;;;;;62.58;31.20;;;;;;;-146.64;100.00;65312.66;5051557;28;20032;-75
2022/01/19 11:02:09;;;;;;;51.28;30.50;;;;;;;-146.64;100.00;67950.44;5070272;28;20016;-74
2022/01/19 11:04:37;;;;;;;59.63;29.73;;;;;;;-146.64;100.00;67422.72;5027608;28;20028;-74
2022/01/19 11:07:07;;;;;;;53.88;29.42;;;;;;;-146.64;100.00;65048.97;5048496;28;20468;-75
2022/01/19 11:09:35;;;;;;;53.97;28.02;;;;;;;-146.64;100.00;62413.09;5031375;28;20065;-74
2022/01/19 11:12:10;;;;;;;55.88;30.88;;;;;;;-146.64;100.00;63203.69;5034415;28;20033;-74
2022/01/19 11:14:36;;;;;;;54.85;29.75;;;;;;;-146.64;100.00;61886.13;5069466;28;20036;-74
2022/01/19 11:17:02;;;;;;;61.47;32.15;;;;;;;-146.64;100.00;61095.81;5052411;28;20060;-74
2022/01/19 11:19:27;;;;;;;59.35;31.45;;;;;;;-146.64;100.00;57936.13;5051468;28;20036;-75
2022/01/19 11:22:05;;;;;;;68.40;34.25;;;;;;;-146.64;100.00;52158.13;5051367;28;20055;-74
2022/01/19 11:24:42;;;;;;;56.15;31.40;;;;;;;-146.64;100.00;48734.75;5051598;28;20494;-74
2022/01/19 11:27:07;;;;;;;56.03;31.00;;;;;;;-146.64;100.00;46417.22;5034786;28;20021;-74
2022/01/19 11:29:33;;;;;;;64.10;32.45;;;;;;;-146.64;100.00;48472.16;5048464;28;20032;-74
2022/01/19 11:32:02;;;;;;;61.42;31.60;;;;;;;-146.64;100.00;48679.34;5049481;28;20387;-74
2022/01/19 11:34:47;;;;;;;57.53;32.95;;;;;;;-146.64;100.00;47381.00;5022348;28;20028;-74
2022/01/19 11:37:14;;;;;;;59.70;32.47;;;;;;;-146.64;100.00;47491.72;5051520;28;20384;-74
2022/01/19 11:40:00;;;;;;;64.03;32.75;;;;;;;-146.64;100.00;45929.28;5031868;28;20028;-74
2022/01/19 11:42:25;;;;;;;62.53;32.17;;;;;;;-146.64;100.00;44506.81;5051588;28;20024;-74
2022/01/19 11:44:51;;;;;;;52.85;30.05;;;;;;;-146.64;100.00;43531.47;5032034;28;20609;-74
2022/01/19 11:47:25;;;;;;;62.83;32.60;;;;;;;-146.64;100.00;42134.44;5034690;28;20377;-74
2022/01/19 11:49:53;;;;;;;52.45;30.38;;;;;;;-146.64;100.00;42363.84;5068117;28;20033;-74
2022/01/19 11:52:20;;;;;;;59.20;32.22;;;;;;;-146.64;100.00;41483.22;5067713;28;20073;-74
2022/01/19 11:54:48;;;;;;;53.65;31.40;;;;;;;-146.64;100.00;41278.44;5059192;28;20044;-74
2022/01/19 11:57:19;;;;;;;56.92;32.67;;;;;;;-146.64;100.00;41235.44;5032367;28;20473;-74
2022/01/19 11:59:47;;;;;;;54.85;32.63;;;;;;;-146.64;100.00;41079.84;5035122;28;20044;-74
2022/01/19 12:02:24;;;;;;;60.83;31.73;;;;;;;-146.64;100.00;40979.50;5073009;28;20024;-74
2022/01/19 12:04:52;;;;;;;49.05;29.35;;;;;;;-146.64;100.00;40999.97;5040000;28;20031;-74
2022/01/19 12:07:38;;;;;;;51.20;29.42;;;;;;;-146.64;100.00;40877.13;5072713;28;20055;-74
2022/01/19 12:10:05;;;;;;;64.05;32.58;;;;;;;-146.64;100.00;40889.41;5050370;28;20025;-74
2022/01/19 12:12:35;;;;;;;59.67;30.73;;;;;;;-146.64;100.00;40832.09;5046975;28;20104;-74
2022/01/19 12:15:05;;;;;;;52.85;30.33;;;;;;;-146.64;100.00;40864.84;5057260;28;20020;-74
2022/01/19 12:18:07;;;;;;;57.03;30.58;;;;;;;-146.64;100.00;40735.88;5072431;28;20027;-74
2022/01/19 12:20:52;;;;;;;56.75;28.25;;;;;;;-146.64;100.00;40746.09;5044040;28;20115;-74
2022/01/19 12:23:32;;;;;;;50.60;28.45;;;;;;;-146.64;100.00;40707.22;5054425;28;20047;-74